EFMI

Mikkeli Airport

Mikkeli, Finland
METAR EFMI 172220Z AUTO 00000KT CAVOK 17/16 Q1017
Observed Flight Rules
Jul-17 @ 22:20 UTC (30 minutes ago) Visual Flight Rules
Visibility Clouds
10,000+ meters
  • Clear skies
Temperatures Readings
Current 17°C / 63°F
Dewpoint 16°C / 61°F
Humidity 94%
Altimeter 30.03" Hg
Pressure 1017 hPa
Elevation 138
METAR EFMI 172220Z AUTO 00000KT CAVOK 17/16 Q1017
Observed Flight Rules
Jul-17 @ 22:20 UTC
(30 minutes ago)
VFR
Clouds
  • Clear skies
Temperature Dewpoint
17°C / 63°F 16°C / 61°F
Humidity Altimeter Pressure
94% 30.03" Hg 1017 hPa